createdAt,value
2023-08-19T00:04:22.781Z,7.22
2023-08-19T00:06:53.420Z,7.00
2023-08-19T00:09:27.795Z,7.70
2023-08-19T00:11:58.405Z,7.63
2023-08-19T00:14:28.936Z,7.78
2023-08-19T00:19:30.098Z,7.40
2023-08-19T00:22:01.019Z,7.65
2023-08-19T00:24:34.598Z,7.32
2023-08-19T00:27:05.315Z,7.57
2023-08-19T00:32:08.602Z,7.50
2023-08-19T00:34:48.589Z,7.18
2023-08-19T00:37:19.215Z,8.05
2023-08-19T00:39:52.680Z,7.60
2023-08-19T00:42:23.299Z,7.72
2023-08-19T00:47:24.971Z,8.10
2023-08-19T00:49:55.896Z,7.18
2023-08-19T00:52:26.689Z,7.70
2023-08-19T00:54:59.902Z,8.02
2023-08-19T00:57:31.147Z,7.82
2023-08-19T01:00:02.158Z,7.85
2023-08-19T01:05:03.500Z,7.60
2023-08-19T01:07:44.207Z,7.90
2023-08-19T01:10:27.287Z,7.65
2023-08-19T01:13:10.855Z,7.90
2023-08-19T01:15:52.922Z,7.97
2023-08-19T01:18:25.252Z,8.10
2023-08-19T01:20:57.770Z,7.40
2023-08-19T01:23:37.528Z,8.15
2023-08-19T01:26:10.714Z,8.20
2023-08-19T01:28:41.179Z,8.00
2023-08-19T01:31:12.043Z,7.35
2023-08-19T01:33:43.172Z,8.00
2023-08-19T01:36:23.401Z,7.45
2023-08-19T01:39:00.328Z,7.93
2023-08-19T01:41:35.251Z,7.63
2023-08-19T01:44:08.320Z,7.63
2023-08-19T01:46:38.910Z,8.20
2023-08-19T01:51:39.727Z,7.05
2023-08-19T01:54:10.759Z,8.93
2023-08-19T01:56:44.065Z,7.82
2023-08-19T01:59:14.664Z,7.38
2023-08-19T02:01:45.199Z,7.63
2023-08-19T02:04:15.814Z,7.40
2023-08-19T02:06:46.548Z,7.53
2023-08-19T02:09:17.686Z,7.18
2023-08-19T02:11:51.000Z,7.35
2023-08-19T02:14:23.165Z,7.28
2023-08-19T02:16:53.649Z,7.82
2023-08-19T02:19:24.154Z,10.07
2023-08-19T02:24:25.215Z,7.22
2023-08-19T02:29:28.502Z,7.45
2023-08-19T02:31:58.986Z,8.00
2023-08-19T02:36:59.755Z,8.13
2023-08-19T02:44:37.390Z,7.32
2023-08-19T02:49:38.861Z,7.07
2023-08-19T02:52:10.563Z,7.43
2023-08-19T02:54:41.321Z,7.63
2023-08-19T02:57:14.483Z,8.02
2023-08-19T02:59:45.002Z,7.78
2023-08-19T03:02:15.690Z,8.43
2023-08-19T03:04:46.931Z,8.10
2023-08-19T03:07:17.694Z,7.72
2023-08-19T03:09:48.892Z,8.00
2023-08-19T03:12:23.198Z,8.20
2023-08-19T03:14:53.827Z,7.32
2023-08-19T03:19:55.688Z,7.32
2023-08-19T03:22:27.485Z,7.55
2023-08-19T03:25:00.751Z,7.22
2023-08-19T03:30:07.886Z,7.75
2023-08-19T03:32:38.673Z,7.28
2023-08-19T03:35:11.409Z,8.32
2023-08-19T03:37:42.664Z,7.63
2023-08-19T03:40:14.714Z,7.45
2023-08-19T03:42:49.024Z,7.80
2023-08-19T03:45:20.687Z,7.95
2023-08-19T03:47:54.451Z,7.85
2023-08-19T03:50:25.849Z,7.82
2023-08-19T03:52:59.839Z,7.70
2023-08-19T03:55:30.628Z,7.28
2023-08-19T03:58:04.128Z,7.47
2023-08-19T04:00:35.456Z,8.18
2023-08-19T04:03:06.585Z,8.07
2023-08-19T04:05:37.168Z,8.05
2023-08-19T04:10:38.830Z,7.90
2023-08-19T04:15:42.227Z,8.63
2023-08-19T04:18:12.795Z,7.95
2023-08-19T04:23:13.607Z,8.02
2023-08-19T04:28:17.125Z,7.57
2023-08-19T04:30:47.881Z,8.35
2023-08-19T04:33:19.226Z,7.97
2023-08-19T04:35:52.089Z,8.20
2023-08-19T04:38:23.727Z,8.30
2023-08-19T04:40:54.608Z,7.75
2023-08-19T04:45:58.196Z,7.47
2023-08-19T04:50:59.000Z,7.72
2023-08-19T04:56:05.227Z,7.88
2023-08-19T04:58:39.979Z,8.70
2023-08-19T05:01:10.701Z,7.78
2023-08-19T05:03:41.917Z,8.45
2023-08-19T05:08:45.607Z,8.40
2023-08-19T05:11:16.605Z,7.75
2023-08-19T05:13:51.556Z,8.10
2023-08-19T05:16:22.044Z,8.25
2023-08-19T05:21:25.899Z,7.25
2023-08-19T05:26:26.688Z,7.07
2023-08-19T05:31:30.004Z,7.13
2023-08-19T05:36:31.916Z,7.57
2023-08-19T05:39:02.383Z,7.80
2023-08-19T05:41:32.817Z,7.43
2023-08-19T05:44:06.560Z,6.78
2023-08-19T05:46:37.313Z,7.20
2023-08-19T05:49:08.032Z,14.75
2023-08-19T05:51:38.529Z,9.68
2023-08-19T05:54:10.385Z,10.55
2023-08-19T05:56:40.902Z,8.85
2023-08-19T06:01:44.186Z,7.40
2023-08-19T06:04:15.971Z,7.60
2023-08-19T06:06:46.544Z,8.15
2023-08-19T06:09:17.059Z,7.90
2023-08-19T06:11:55.820Z,7.35
2023-08-19T06:14:28.938Z,7.10
2023-08-19T06:16:59.451Z,6.70
2023-08-19T06:19:29.978Z,6.65
2023-08-19T06:22:00.657Z,6.38
2023-08-19T06:24:31.581Z,5.97
2023-08-19T06:27:02.042Z,6.05
2023-08-19T06:29:35.097Z,6.32
2023-08-19T06:32:06.661Z,6.28
2023-08-19T06:34:38.137Z,6.47
2023-08-19T06:37:10.152Z,5.55
2023-08-19T06:39:42.593Z,5.88
2023-08-19T06:42:14.893Z,6.20
2023-08-19T06:44:53.764Z,5.82
2023-08-19T06:47:26.546Z,5.93
2023-08-19T06:49:58.085Z,5.75
2023-08-19T06:52:29.695Z,6.20
2023-08-19T06:55:01.123Z,6.30
2023-08-19T06:57:34.143Z,6.15
2023-08-19T07:00:10.710Z,6.40
2023-08-19T07:02:43.334Z,6.45
2023-08-19T07:05:17.368Z,6.38
2023-08-19T07:07:54.536Z,6.82
2023-08-19T07:10:27.668Z,7.72
2023-08-19T07:12:59.448Z,6.30
2023-08-19T07:15:35.347Z,6.63
2023-08-19T07:18:08.690Z,6.35
2023-08-19T07:20:40.510Z,6.43
2023-08-19T07:23:12.884Z,6.05
2023-08-19T07:25:45.027Z,6.25
2023-08-19T07:28:20.645Z,6.03
2023-08-19T07:30:54.998Z,6.47
2023-08-19T07:33:25.507Z,6.10
2023-08-19T07:35:55.973Z,5.90
2023-08-19T07:38:26.468Z,6.18
2023-08-19T07:40:57.002Z,5.85
2023-08-19T07:43:27.548Z,5.47
2023-08-19T07:46:00.695Z,5.32
2023-08-19T07:48:33.124Z,5.82
2023-08-19T07:51:03.757Z,5.80
2023-08-19T07:53:34.233Z,5.57
2023-08-19T07:56:04.717Z,5.35
2023-08-19T07:58:35.333Z,5.88
2023-08-19T08:01:08.796Z,6.60
2023-08-19T08:03:39.593Z,6.40
2023-08-19T08:06:10.308Z,6.00
2023-08-19T08:08:40.888Z,5.43
2023-08-19T08:11:11.364Z,5.95
2023-08-19T08:13:41.858Z,5.57
2023-08-19T08:16:15.017Z,5.10
2023-08-19T08:18:45.533Z,4.85
2023-08-19T08:21:16.176Z,5.20
2023-08-19T08:23:46.776Z,4.55
2023-08-19T08:26:18.263Z,5.00
2023-08-19T08:28:49.144Z,4.50
2023-08-19T08:31:22.351Z,5.80
2023-08-19T08:33:53.185Z,4.45
2023-08-19T08:36:23.643Z,4.80
2023-08-19T08:38:54.256Z,4.88
2023-08-19T08:41:26.342Z,4.63
2023-08-19T08:43:59.243Z,4.85
2023-08-19T08:46:34.631Z,4.80
2023-08-19T08:49:05.765Z,4.18
2023-08-19T08:51:36.386Z,4.93
2023-08-19T08:54:09.853Z,4.82
2023-08-19T08:56:40.329Z,5.20
2023-08-19T08:59:11.059Z,4.50
2023-08-19T09:01:46.522Z,4.47
2023-08-19T09:04:19.754Z,4.50
2023-08-19T09:06:56.276Z,4.20
2023-08-19T09:09:29.533Z,4.20
2023-08-19T09:12:02.351Z,4.03
2023-08-19T09:14:43.236Z,4.22
2023-08-19T09:17:18.549Z,3.92
2023-08-19T09:19:49.038Z,4.40
2023-08-19T09:22:25.348Z,3.95
2023-08-19T09:24:57.810Z,4.50
2023-08-19T09:27:35.437Z,4.20
2023-08-19T09:30:06.413Z,4.55
2023-08-19T09:32:42.653Z,4.00
2023-08-19T09:35:16.402Z,4.05
2023-08-19T09:37:47.053Z,3.90
2023-08-19T09:40:25.511Z,4.07
2023-08-19T09:42:56.242Z,3.90
2023-08-19T09:45:29.793Z,4.05
2023-08-19T09:48:03.603Z,4.00
2023-08-19T09:50:34.921Z,3.95
2023-08-19T09:53:05.971Z,4.07
2023-08-19T09:55:36.385Z,4.93
2023-08-19T09:58:07.357Z,4.68
2023-08-19T10:00:37.852Z,4.05
2023-08-19T10:03:11.136Z,4.20
2023-08-19T10:05:44.135Z,4.00
2023-08-19T10:08:22.073Z,4.18
2023-08-19T10:10:53.256Z,4.30
2023-08-19T10:13:26.797Z,4.13
2023-08-19T10:16:02.465Z,4.10
2023-08-19T10:18:40.073Z,4.38
2023-08-19T10:21:15.702Z,4.40
2023-08-19T10:23:49.654Z,4.35
2023-08-19T10:26:21.605Z,4.50
2023-08-19T10:29:09.109Z,4.50
2023-08-19T10:31:41.412Z,4.40
2023-08-19T10:34:29.994Z,4.00
2023-08-19T10:37:17.979Z,4.05
2023-08-19T10:39:50.266Z,3.70
2023-08-19T10:42:20.869Z,3.90
2023-08-19T10:44:51.588Z,4.18
2023-08-19T10:47:22.817Z,4.07
2023-08-19T10:50:05.948Z,4.63
2023-08-19T10:52:38.187Z,4.05
2023-08-19T10:55:10.578Z,4.18
2023-08-19T10:57:41.822Z,4.10
2023-08-19T11:00:17.437Z,3.90
2023-08-19T11:02:48.317Z,4.22
2023-08-19T11:05:29.384Z,3.97
2023-08-19T11:07:59.907Z,3.85
2023-08-19T11:10:36.266Z,3.70
2023-08-19T11:13:07.940Z,4.00
2023-08-19T11:15:38.571Z,3.67
2023-08-19T11:18:09.622Z,3.85
2023-08-19T11:20:42.835Z,3.50
2023-08-19T11:23:13.894Z,4.10
2023-08-19T11:25:47.458Z,4.03
2023-08-19T11:28:19.620Z,4.22
2023-08-19T11:30:50.387Z,3.80
2023-08-19T11:33:25.181Z,4.55
2023-08-19T11:35:58.484Z,3.90
2023-08-19T11:38:28.929Z,4.07
2023-08-19T11:40:59.417Z,4.00
2023-08-19T11:43:32.692Z,3.95
2023-08-19T11:46:03.710Z,3.65
2023-08-19T11:48:34.371Z,4.10
2023-08-19T11:51:15.897Z,4.07
2023-08-19T11:53:55.321Z,3.95
2023-08-19T11:56:25.936Z,3.80
2023-08-19T11:58:57.628Z,4.35
2023-08-19T12:01:28.616Z,4.45
2023-08-19T12:03:59.168Z,4.10
2023-08-19T12:06:36.083Z,4.13
2023-08-19T12:09:07.308Z,3.88
2023-08-19T12:11:39.430Z,4.13
2023-08-19T12:14:11.202Z,3.90
2023-08-19T12:16:41.720Z,4.20
2023-08-19T12:19:12.461Z,4.07
2023-08-19T12:21:46.148Z,3.92
2023-08-19T12:24:16.760Z,4.38
2023-08-19T12:26:48.267Z,4.38
2023-08-19T12:29:18.878Z,3.90
2023-08-19T12:31:49.458Z,4.43
2023-08-19T12:34:20.039Z,4.28
2023-08-19T12:36:55.322Z,4.90
2023-08-19T12:39:27.595Z,3.85
2023-08-19T12:41:58.084Z,3.65
2023-08-19T12:44:28.694Z,4.00
2023-08-19T12:46:59.270Z,4.30
2023-08-19T12:49:29.842Z,3.72
2023-08-19T12:52:02.950Z,3.90
2023-08-19T12:54:33.489Z,4.18
2023-08-19T12:57:04.070Z,4.55
2023-08-19T12:59:34.633Z,4.38
2023-08-19T13:02:06.411Z,4.43
2023-08-19T13:04:37.945Z,4.20
2023-08-19T13:07:11.306Z,4.20
2023-08-19T13:09:42.218Z,4.32
2023-08-19T13:12:13.651Z,4.20
2023-08-19T13:14:44.226Z,4.30
2023-08-19T13:17:14.778Z,3.75
2023-08-19T13:19:45.394Z,4.03
2023-08-19T13:22:19.469Z,3.80
2023-08-19T13:24:50.000Z,4.10
2023-08-19T13:27:20.605Z,3.80
2023-08-19T13:29:51.502Z,3.90
2023-08-19T13:32:22.012Z,4.00
2023-08-19T13:34:52.591Z,4.07
2023-08-19T13:37:25.784Z,4.18
2023-08-19T13:39:57.239Z,3.72
2023-08-19T13:42:27.744Z,3.80
2023-08-19T13:44:58.554Z,3.50
2023-08-19T13:47:29.121Z,3.55
2023-08-19T13:49:59.711Z,3.90
2023-08-19T13:52:44.427Z,3.75
2023-08-19T13:55:17.452Z,3.75
2023-08-19T13:57:47.952Z,3.67
2023-08-19T14:00:20.135Z,3.47
2023-08-19T14:02:51.217Z,4.05
2023-08-19T14:05:23.309Z,3.70
2023-08-19T14:07:56.455Z,3.78
2023-08-19T14:10:26.993Z,3.72
2023-08-19T14:12:57.522Z,3.70
2023-08-19T14:15:28.389Z,4.03
2023-08-19T14:17:59.017Z,3.67
2023-08-19T14:20:29.600Z,3.70
2023-08-19T14:23:03.188Z,3.95
2023-08-19T14:25:33.729Z,3.75
2023-08-19T14:28:04.271Z,4.03
2023-08-19T14:30:35.139Z,4.13
2023-08-19T14:33:05.888Z,3.88
2023-08-19T14:35:36.492Z,4.13
2023-08-19T14:38:09.817Z,3.78
2023-08-19T14:40:40.445Z,3.50
2023-08-19T14:43:10.972Z,3.90
2023-08-19T14:45:41.497Z,3.80
2023-08-19T14:48:12.045Z,3.72
2023-08-19T14:50:42.508Z,3.60
2023-08-19T14:53:15.576Z,3.53
2023-08-19T14:55:46.146Z,3.38
2023-08-19T14:58:16.959Z,3.65
2023-08-19T15:00:47.566Z,3.78
2023-08-19T15:03:18.189Z,3.70
2023-08-19T15:05:48.815Z,3.65
2023-08-19T15:08:21.937Z,3.72
2023-08-19T15:10:52.455Z,3.80
2023-08-19T15:13:23.706Z,3.60
2023-08-19T15:15:54.255Z,3.40
2023-08-19T15:18:24.803Z,3.80
2023-08-19T15:20:55.332Z,3.67
2023-08-19T15:23:28.494Z,3.90
2023-08-19T15:25:59.054Z,3.55
2023-08-19T15:28:29.592Z,3.72
2023-08-19T15:31:00.105Z,3.70
2023-08-19T15:33:30.621Z,4.10
2023-08-19T15:36:01.120Z,3.90
2023-08-19T15:38:34.230Z,3.65
2023-08-19T15:41:04.757Z,3.72
2023-08-19T15:43:35.212Z,5.10
2023-08-19T15:46:05.731Z,4.53
2023-08-19T15:48:36.361Z,4.88
2023-08-19T15:51:07.703Z,4.22
2023-08-19T15:53:41.051Z,3.90
2023-08-19T15:56:11.561Z,3.80
2023-08-19T15:58:41.959Z,4.03
2023-08-19T16:01:12.584Z,3.50
2023-08-19T16:03:43.073Z,3.40
2023-08-19T16:06:13.593Z,3.58
2023-08-19T16:08:46.723Z,3.67
2023-08-19T16:11:17.284Z,3.50
2023-08-19T16:13:47.825Z,4.22
2023-08-19T16:16:18.328Z,3.70
2023-08-19T16:18:48.833Z,4.57
2023-08-19T16:21:19.281Z,3.70
2023-08-19T16:23:52.604Z,4.10
2023-08-19T16:26:23.414Z,4.20
2023-08-19T16:28:53.951Z,4.22
2023-08-19T16:31:24.501Z,4.68
2023-08-19T16:33:55.890Z,4.30
2023-08-19T16:36:26.339Z,5.30
2023-08-19T16:38:59.404Z,4.80
2023-08-19T16:41:29.843Z,4.57
2023-08-19T16:44:00.321Z,4.40
2023-08-19T16:46:34.138Z,4.40
2023-08-19T16:49:06.197Z,4.15
2023-08-19T16:51:39.808Z,4.75
2023-08-19T16:54:13.341Z,5.07
2023-08-19T16:56:43.787Z,4.38
2023-08-19T16:59:14.304Z,4.40
2023-08-19T17:01:44.914Z,4.93
2023-08-19T17:04:15.404Z,4.72
2023-08-19T17:06:45.873Z,4.93
2023-08-19T17:09:19.010Z,4.63
2023-08-19T17:11:49.639Z,4.78
2023-08-19T17:14:20.086Z,4.88
2023-08-19T17:16:51.561Z,5.13
2023-08-19T17:19:22.152Z,4.82
2023-08-19T17:21:54.122Z,4.50
2023-08-19T17:24:28.365Z,6.32
2023-08-19T17:26:59.381Z,9.38
2023-08-19T17:29:30.021Z,6.15
2023-08-19T17:32:00.510Z,6.18
2023-08-19T17:34:31.086Z,6.00
2023-08-19T17:37:02.053Z,5.78
2023-08-19T17:39:35.220Z,5.03
2023-08-19T17:42:10.708Z,5.20
2023-08-19T17:44:48.022Z,6.53
2023-08-19T17:47:18.691Z,6.38
2023-08-19T17:49:49.207Z,6.65
2023-08-19T17:52:19.730Z,6.55
2023-08-19T17:54:53.044Z,6.32
2023-08-19T17:57:23.532Z,6.50
2023-08-19T17:59:54.094Z,7.05
2023-08-19T18:02:25.491Z,11.50
2023-08-19T18:04:58.460Z,8.88
2023-08-19T18:07:30.161Z,8.07
2023-08-19T18:10:04.189Z,7.57
2023-08-19T18:12:34.800Z,6.20
2023-08-19T18:15:05.709Z,6.90
2023-08-19T18:17:36.813Z,6.40
2023-08-19T18:20:10.113Z,6.20
2023-08-19T18:22:40.586Z,6.82
2023-08-19T18:25:13.916Z,8.10
2023-08-19T18:27:47.555Z,7.63
2023-08-19T18:30:18.326Z,6.47
2023-08-19T18:32:49.397Z,5.95
2023-08-19T18:35:20.801Z,6.95
2023-08-19T18:37:51.691Z,7.35
2023-08-19T18:40:25.303Z,7.03
2023-08-19T18:42:55.854Z,6.15
2023-08-19T18:45:26.596Z,5.93
2023-08-19T18:48:14.159Z,7.35
2023-08-19T18:50:47.765Z,6.13
2023-08-19T18:53:18.245Z,5.35
2023-08-19T18:55:51.877Z,4.53
2023-08-19T18:58:22.753Z,4.90
2023-08-19T19:00:53.255Z,4.32
2023-08-19T19:03:23.779Z,4.20
2023-08-19T19:05:54.403Z,4.88
2023-08-19T19:08:24.998Z,4.03
2023-08-19T19:10:58.243Z,4.13
2023-08-19T19:13:28.860Z,4.63
2023-08-19T19:15:59.606Z,3.70
2023-08-19T19:18:30.246Z,4.00
2023-08-19T19:21:00.783Z,4.53
2023-08-19T19:23:31.202Z,4.03
2023-08-19T19:26:07.415Z,3.95
2023-08-19T19:28:37.967Z,4.22
2023-08-19T19:31:10.028Z,4.07
2023-08-19T19:33:40.613Z,4.25
2023-08-19T19:36:11.348Z,4.22
2023-08-19T19:38:43.766Z,4.05
2023-08-19T19:41:16.971Z,4.95
2023-08-19T19:43:47.539Z,5.60
2023-08-19T19:46:18.106Z,5.25
2023-08-19T19:48:48.672Z,5.10
2023-08-19T19:51:19.427Z,6.22
2023-08-19T19:53:49.965Z,5.65
2023-08-19T19:56:23.787Z,5.55
2023-08-19T19:58:54.452Z,5.32
2023-08-19T20:01:25.188Z,5.50
2023-08-19T20:03:56.606Z,4.55
2023-08-19T20:06:27.087Z,5.13
2023-08-19T20:08:58.810Z,8.18
2023-08-19T20:11:32.012Z,14.20
2023-08-19T20:14:02.597Z,6.00
2023-08-19T20:16:33.307Z,5.90
2023-08-19T20:19:03.847Z,5.97
2023-08-19T20:21:34.580Z,5.95
2023-08-19T20:24:05.131Z,6.32
2023-08-19T20:26:38.683Z,7.40
2023-08-19T20:29:09.706Z,7.60
2023-08-19T20:31:40.247Z,7.47
2023-08-19T20:34:10.713Z,7.82
2023-08-19T20:36:41.205Z,8.23
2023-08-19T20:39:12.146Z,8.23
2023-08-19T20:41:45.213Z,8.63
2023-08-19T20:44:18.123Z,7.93
2023-08-19T20:46:48.671Z,8.13
2023-08-19T20:49:19.396Z,7.65
2023-08-19T20:51:49.934Z,7.40
2023-08-19T20:54:20.405Z,9.13
2023-08-19T20:56:53.461Z,6.97
2023-08-19T20:59:24.145Z,7.25
2023-08-19T21:01:54.653Z,7.13
2023-08-19T21:04:25.229Z,7.18
2023-08-19T21:06:55.802Z,6.88
2023-08-19T21:09:26.356Z,6.57
2023-08-19T21:11:59.440Z,6.47
2023-08-19T21:14:29.929Z,6.78
2023-08-19T21:17:00.441Z,6.35
2023-08-19T21:19:31.152Z,6.10
2023-08-19T21:22:01.615Z,8.05
2023-08-19T21:24:32.205Z,6.68
2023-08-19T21:27:05.494Z,6.70
2023-08-19T21:29:36.032Z,7.65
2023-08-19T21:32:07.309Z,9.05
2023-08-19T21:34:37.837Z,8.70
2023-08-19T21:37:08.506Z,9.52
2023-08-19T21:39:39.068Z,9.10
2023-08-19T21:42:12.424Z,8.65
2023-08-19T21:44:42.960Z,10.90
2023-08-19T21:47:13.396Z,9.27
2023-08-19T21:49:43.849Z,8.68
2023-08-19T21:52:14.295Z,6.80
2023-08-19T21:54:45.858Z,6.80
2023-08-19T21:57:19.037Z,6.75
2023-08-19T21:59:50.684Z,6.50
2023-08-19T22:02:21.207Z,6.38
2023-08-19T22:04:51.830Z,6.88
2023-08-19T22:07:22.836Z,6.80
2023-08-19T22:09:56.513Z,7.07
2023-08-19T22:12:29.961Z,6.13
2023-08-19T22:15:00.577Z,6.10
2023-08-19T22:17:33.853Z,7.45
2023-08-19T22:20:07.940Z,6.30
2023-08-19T22:22:38.518Z,6.47
2023-08-19T22:25:11.576Z,6.75
2023-08-19T22:27:44.876Z,7.05
2023-08-19T22:30:18.938Z,7.07
2023-08-19T22:32:52.315Z,8.02
2023-08-19T22:35:25.012Z,8.38
2023-08-19T22:37:55.639Z,8.20
2023-08-19T22:40:26.147Z,8.38
2023-08-19T22:42:59.392Z,7.00
2023-08-19T22:45:30.084Z,6.93
2023-08-19T22:48:00.627Z,6.90
2023-08-19T22:50:31.323Z,6.60
2023-08-19T22:53:01.910Z,6.22
2023-08-19T22:55:34.083Z,6.35
2023-08-19T22:58:07.774Z,5.95
2023-08-19T23:00:38.379Z,7.00
2023-08-19T23:03:09.641Z,6.28
2023-08-19T23:05:40.383Z,6.47
2023-08-19T23:08:10.913Z,8.18
2023-08-19T23:10:44.372Z,8.20
2023-08-19T23:13:17.660Z,7.35
2023-08-19T23:15:48.315Z,7.10
2023-08-19T23:18:18.973Z,6.68
2023-08-19T23:20:49.590Z,6.30
2023-08-19T23:23:20.189Z,6.85
2023-08-19T23:25:50.934Z,6.72
2023-08-19T23:28:24.342Z,5.75
2023-08-19T23:30:54.938Z,5.82
2023-08-19T23:33:25.896Z,5.70
2023-08-19T23:35:56.769Z,5.50
2023-08-19T23:38:27.461Z,5.65
2023-08-19T23:40:58.034Z,5.38
2023-08-19T23:43:31.146Z,5.88
2023-08-19T23:46:01.704Z,5.53
2023-08-19T23:48:33.440Z,5.78
2023-08-19T23:51:07.208Z,5.28
2023-08-19T23:53:43.301Z,5.57
2023-08-19T23:56:15.369Z,6.07
2023-08-19T23:58:49.667Z,6.55
